createdAt,value
2018-02-11T00:00:43.990Z,2.47
2018-02-11T00:03:11.558Z,2.38
2018-02-11T00:05:39.440Z,2.39
2018-02-11T00:08:06.972Z,2.34
2018-02-11T00:10:34.537Z,2.38
2018-02-11T00:13:02.269Z,2.35
2018-02-11T00:15:29.803Z,2.31
2018-02-11T00:17:57.362Z,2.38
2018-02-11T00:20:24.926Z,2.30
2018-02-11T00:22:52.557Z,2.23
2018-02-11T00:25:20.246Z,2.37
2018-02-11T00:27:47.787Z,2.11
2018-02-11T00:30:15.446Z,2.10
2018-02-11T00:32:42.987Z,2.13
2018-02-11T00:35:10.537Z,2.16
2018-02-11T00:37:43.674Z,2.21
2018-02-11T00:40:11.239Z,2.23
2018-02-11T00:42:38.783Z,2.20
2018-02-11T00:45:06.400Z,2.26
2018-02-11T00:47:34.017Z,2.16
2018-02-11T00:50:01.610Z,2.18
2018-02-11T00:52:29.153Z,2.21
2018-02-11T00:54:56.714Z,2.15
2018-02-11T00:57:24.275Z,2.17
2018-02-11T00:59:51.811Z,2.14
2018-02-11T01:02:19.379Z,2.02
2018-02-11T01:04:46.925Z,1.99
2018-02-11T01:07:14.680Z,2.01
2018-02-11T01:09:42.257Z,1.92
2018-02-11T01:12:09.805Z,2.03
2018-02-11T01:14:37.338Z,1.98
2018-02-11T01:17:04.896Z,2.04
2018-02-11T01:19:32.417Z,2.03
2018-02-11T01:22:00.076Z,2.03
2018-02-11T01:24:27.634Z,2.05
2018-02-11T01:26:55.607Z,2.03
2018-02-11T01:29:23.156Z,2.02
2018-02-11T01:31:50.737Z,2.05
2018-02-11T01:34:18.256Z,2.12
2018-02-11T01:36:45.804Z,2.19
2018-02-11T01:39:13.345Z,2.11
2018-02-11T01:41:40.886Z,2.13
2018-02-11T01:44:08.401Z,2.14
2018-02-11T01:46:35.960Z,2.17
2018-02-11T01:49:03.512Z,2.17
2018-02-11T01:51:31.044Z,2.21
2018-02-11T01:53:58.601Z,2.17
2018-02-11T01:56:26.134Z,2.33
2018-02-11T01:58:54.032Z,2.32
2018-02-11T02:01:21.612Z,2.14
2018-02-11T02:03:49.417Z,2.14
2018-02-11T02:06:16.991Z,2.22
2018-02-11T02:08:44.550Z,2.18
2018-02-11T02:11:12.079Z,2.15
2018-02-11T02:13:39.681Z,2.18
2018-02-11T02:16:07.244Z,2.19
2018-02-11T02:18:34.777Z,2.20
2018-02-11T02:21:02.336Z,2.25
2018-02-11T02:23:30.218Z,2.24
2018-02-11T02:25:57.732Z,2.22
2018-02-11T02:28:25.548Z,2.12
2018-02-11T02:30:53.138Z,2.14
2018-02-11T02:33:20.976Z,2.15
2018-02-11T02:35:48.507Z,2.15
2018-02-11T02:38:16.052Z,2.09
2018-02-11T02:40:43.569Z,1.95
2018-02-11T02:43:11.087Z,1.81
2018-02-11T02:45:38.660Z,1.81
2018-02-11T02:48:06.227Z,1.90
2018-02-11T02:50:33.790Z,1.96
2018-02-11T02:53:01.663Z,1.96
2018-02-11T02:55:29.199Z,1.98
2018-02-11T02:57:56.771Z,1.88
2018-02-11T03:00:24.334Z,1.96
2018-02-11T03:02:52.010Z,2.12
2018-02-11T03:05:19.611Z,2.11
2018-02-11T03:07:47.158Z,2.14
2018-02-11T03:10:14.714Z,2.15
2018-02-11T03:12:42.240Z,2.08
2018-02-11T03:15:09.793Z,2.07
2018-02-11T03:17:37.308Z,2.10
2018-02-11T03:20:04.847Z,2.04
2018-02-11T03:22:32.700Z,2.02
2018-02-11T03:25:00.235Z,1.95
2018-02-11T03:27:27.764Z,1.97
2018-02-11T03:29:55.360Z,2.00
2018-02-11T03:32:23.150Z,1.99
2018-02-11T03:34:50.733Z,2.08
2018-02-11T03:37:18.254Z,2.11
2018-02-11T03:39:45.841Z,2.20
2018-02-11T03:42:13.623Z,2.20
2018-02-11T03:44:41.170Z,2.14
2018-02-11T03:47:08.745Z,2.05
2018-02-11T03:49:36.544Z,2.10
2018-02-11T03:52:04.135Z,2.08
2018-02-11T03:54:31.660Z,2.16
2018-02-11T03:56:59.224Z,2.16
2018-02-11T03:59:26.798Z,2.06
2018-02-11T04:01:54.593Z,2.09
2018-02-11T04:04:22.150Z,2.09
2018-02-11T04:06:49.693Z,2.09
2018-02-11T04:09:17.473Z,2.08
2018-02-11T04:11:45.020Z,2.03
2018-02-11T04:14:12.547Z,2.00
2018-02-11T04:16:40.104Z,1.99
2018-02-11T04:19:07.633Z,1.96
2018-02-11T04:21:35.171Z,1.98
2018-02-11T04:24:03.049Z,1.97
2018-02-11T04:26:30.909Z,1.91
2018-02-11T04:28:58.468Z,1.90
2018-02-11T04:31:26.242Z,1.84
2018-02-11T04:33:53.802Z,1.95
2018-02-11T04:36:21.338Z,1.93
2018-02-11T04:38:48.878Z,1.99
2018-02-11T04:41:16.460Z,1.96
2018-02-11T04:43:43.991Z,1.86
2018-02-11T04:46:11.536Z,1.87
2018-02-11T04:48:39.085Z,1.94
2018-02-11T04:51:06.614Z,1.88
2018-02-11T04:53:34.206Z,1.93
2018-02-11T04:56:01.739Z,1.91
2018-02-11T04:58:29.300Z,1.95
2018-02-11T05:00:56.865Z,1.95
2018-02-11T05:03:24.414Z,1.99
2018-02-11T05:05:52.018Z,2.10
2018-02-11T05:08:19.672Z,2.09
2018-02-11T05:10:47.216Z,2.05
2018-02-11T05:13:14.778Z,2.11
2018-02-11T05:15:42.315Z,2.18
2018-02-11T05:18:09.866Z,2.19
2018-02-11T05:20:37.662Z,2.20
2018-02-11T05:23:05.432Z,2.04
2018-02-11T05:25:33.026Z,2.07
2018-02-11T05:28:00.596Z,2.07
2018-02-11T05:30:28.168Z,2.07
2018-02-11T05:32:55.736Z,2.18
2018-02-11T05:35:23.298Z,2.18
2018-02-11T05:37:50.843Z,2.13
2018-02-11T05:40:18.399Z,2.18
2018-02-11T05:42:45.958Z,2.12
2018-02-11T05:45:13.525Z,2.18
2018-02-11T05:47:41.140Z,2.10
2018-02-11T05:50:09.004Z,2.17
2018-02-11T05:52:36.546Z,2.23
2018-02-11T05:55:04.155Z,2.23
2018-02-11T05:57:31.735Z,2.23
2018-02-11T05:59:59.555Z,2.26
2018-02-11T06:02:27.422Z,2.30
2018-02-11T06:04:54.979Z,2.20
2018-02-11T06:07:22.515Z,2.20
2018-02-11T06:09:50.090Z,2.20
2018-02-11T06:12:17.630Z,2.19
2018-02-11T06:14:45.192Z,2.23
2018-02-11T06:17:12.810Z,2.19
2018-02-11T06:19:40.463Z,2.14
2018-02-11T06:22:08.054Z,2.09
2018-02-11T06:24:35.591Z,2.18
2018-02-11T06:27:03.139Z,2.16
2018-02-11T06:29:30.673Z,2.10
2018-02-11T06:31:58.215Z,2.12
2018-02-11T06:34:25.781Z,2.24
2018-02-11T06:36:53.365Z,2.25
2018-02-11T06:39:20.900Z,2.36
2018-02-11T06:41:48.446Z,2.39
2018-02-11T06:44:16.027Z,2.39
2018-02-11T06:46:43.925Z,2.37
2018-02-11T06:49:11.791Z,2.32
2018-02-11T06:51:39.355Z,2.30
2018-02-11T06:54:06.859Z,2.36
2018-02-11T06:56:34.413Z,2.25
2018-02-11T06:59:01.959Z,2.29
2018-02-11T07:01:29.550Z,2.28
2018-02-11T07:03:57.167Z,2.29
2018-02-11T07:06:25.029Z,2.29
2018-02-11T07:08:52.894Z,2.30
2018-02-11T07:11:20.452Z,2.36
2018-02-11T07:13:48.321Z,2.36
2018-02-11T07:16:15.850Z,2.40
2018-02-11T07:18:43.383Z,2.49
2018-02-11T07:21:11.206Z,2.47
2018-02-11T07:23:39.032Z,2.36
2018-02-11T07:26:06.594Z,2.35
2018-02-11T07:28:34.209Z,2.44
2018-02-11T07:31:01.911Z,2.61
2018-02-11T07:33:29.488Z,2.62
2018-02-11T07:35:57.053Z,2.52
2018-02-11T07:38:24.668Z,2.74
2018-02-11T07:40:52.330Z,2.63
2018-02-11T07:43:19.896Z,2.52
2018-02-11T07:45:47.508Z,2.63
2018-02-11T07:48:15.018Z,2.74
2018-02-11T07:50:42.629Z,2.77
2018-02-11T07:53:10.306Z,2.69
2018-02-11T07:55:37.899Z,2.71
2018-02-11T07:58:05.753Z,2.67
2018-02-11T08:00:33.316Z,2.66
2018-02-11T08:03:00.901Z,2.57
2018-02-11T08:05:28.524Z,2.58
2018-02-11T08:07:56.609Z,2.52
2018-02-11T08:10:24.269Z,2.58
2018-02-11T08:12:52.141Z,2.53
2018-02-11T08:15:19.716Z,2.59
2018-02-11T08:17:47.291Z,2.63
2018-02-11T08:20:14.824Z,2.70
2018-02-11T08:22:42.411Z,2.62
2018-02-11T08:25:09.993Z,2.68
2018-02-11T08:27:37.533Z,2.57
2018-02-11T08:30:05.103Z,2.62
2018-02-11T08:32:32.661Z,2.67
2018-02-11T08:35:00.220Z,2.78
2018-02-11T08:37:27.761Z,3.02
2018-02-11T08:39:55.652Z,3.10
2018-02-11T08:42:23.192Z,3.16
2018-02-11T08:44:50.795Z,3.34
2018-02-11T08:47:18.388Z,3.39
2018-02-11T08:49:46.268Z,3.50
2018-02-11T08:52:13.844Z,3.57
2018-02-11T08:54:41.421Z,3.46
2018-02-11T08:57:08.926Z,3.32
2018-02-11T08:59:36.489Z,3.39
2018-02-11T09:02:04.266Z,3.45
2018-02-11T09:04:32.136Z,3.58
2018-02-11T09:06:59.673Z,3.63
2018-02-11T09:09:27.462Z,3.54
2018-02-11T09:11:55.334Z,3.68
2018-02-11T09:14:22.864Z,3.63
2018-02-11T09:16:50.428Z,3.60
2018-02-11T09:19:17.959Z,3.67
2018-02-11T09:21:45.503Z,3.71
2018-02-11T09:24:13.049Z,3.75
2018-02-11T09:26:40.590Z,3.93
2018-02-11T09:29:08.458Z,3.96
2018-02-11T09:31:35.980Z,4.06
2018-02-11T09:34:03.499Z,3.91
2018-02-11T09:36:31.062Z,4.10
2018-02-11T09:38:58.665Z,3.98
2018-02-11T09:41:26.468Z,4.23
2018-02-11T09:43:54.904Z,4.00
2018-02-11T09:46:22.442Z,4.23
2018-02-11T09:48:49.973Z,4.25
2018-02-11T09:51:17.523Z,4.32
2018-02-11T09:53:45.072Z,4.27
2018-02-11T09:56:12.618Z,4.12
2018-02-11T09:58:40.144Z,4.03
2018-02-11T10:01:07.983Z,3.99
2018-02-11T10:03:35.770Z,4.02
2018-02-11T10:06:03.327Z,4.23
2018-02-11T10:08:30.850Z,4.22
2018-02-11T10:10:58.386Z,4.32
2018-02-11T10:13:25.947Z,4.36
2018-02-11T10:15:53.477Z,4.27
2018-02-11T10:18:21.050Z,4.40
2018-02-11T10:20:48.589Z,4.49
2018-02-11T10:23:16.110Z,4.78
2018-02-11T10:25:43.652Z,4.97
2018-02-11T10:28:11.172Z,4.95
2018-02-11T10:30:38.769Z,4.82
2018-02-11T10:33:06.679Z,4.83
2018-02-11T10:35:34.212Z,4.87
2018-02-11T10:38:01.751Z,4.93
2018-02-11T10:40:29.567Z,4.89
2018-02-11T10:42:57.125Z,4.86
2018-02-11T10:45:24.651Z,4.87
2018-02-11T10:47:52.219Z,4.70
2018-02-11T10:50:19.762Z,4.69
2018-02-11T10:52:47.692Z,4.64
2018-02-11T10:55:15.247Z,4.74
2018-02-11T10:57:42.781Z,4.53
2018-02-11T11:00:10.296Z,4.54
2018-02-11T11:02:37.844Z,4.52
2018-02-11T11:05:05.372Z,4.45
2018-02-11T11:07:32.951Z,4.38
2018-02-11T11:10:00.503Z,4.41
2018-02-11T11:12:28.034Z,4.35
2018-02-11T11:14:55.938Z,4.07
2018-02-11T11:17:24.789Z,3.76
2018-02-11T11:19:52.633Z,3.68
2018-02-11T11:22:20.155Z,3.83
2018-02-11T11:24:47.708Z,4.00
2018-02-11T11:27:15.277Z,4.10
2018-02-11T11:29:42.905Z,4.10
2018-02-11T11:32:10.792Z,4.07
2018-02-11T11:34:38.303Z,4.07
2018-02-11T11:37:05.910Z,3.90
2018-02-11T11:39:33.484Z,3.72
2018-02-11T11:42:01.237Z,3.95
2018-02-11T11:44:28.867Z,3.92
2018-02-11T11:46:56.374Z,3.93
2018-02-11T11:49:23.909Z,4.04
2018-02-11T11:51:51.693Z,3.97
2018-02-11T11:54:19.216Z,3.86
2018-02-11T11:56:47.022Z,3.93
2018-02-11T11:59:14.562Z,4.05
2018-02-11T12:01:42.111Z,4.03
2018-02-11T12:04:09.673Z,4.04
2018-02-11T12:06:37.400Z,4.12
2018-02-11T12:09:04.997Z,4.08
2018-02-11T12:11:32.602Z,4.13
2018-02-11T12:14:00.316Z,3.99
2018-02-11T12:16:27.849Z,3.94
2018-02-11T12:18:55.391Z,3.91
2018-02-11T12:21:22.935Z,3.92
2018-02-11T12:23:50.698Z,4.04
2018-02-11T12:26:18.225Z,3.91
2018-02-11T12:28:45.764Z,4.09
2018-02-11T12:31:13.347Z,3.95
2018-02-11T12:33:40.898Z,3.98
2018-02-11T12:36:08.455Z,3.86
2018-02-11T12:38:35.996Z,3.66
2018-02-11T12:41:03.558Z,3.47
2018-02-11T12:43:31.091Z,3.37
2018-02-11T12:45:58.674Z,3.31
2018-02-11T12:48:26.517Z,3.33
2018-02-11T12:50:54.094Z,3.31
2018-02-11T12:53:21.952Z,3.31
2018-02-11T12:55:49.566Z,3.17
2018-02-11T12:58:17.482Z,3.17
2018-02-11T13:00:45.038Z,3.12
2018-02-11T13:03:12.563Z,3.14
2018-02-11T13:05:40.147Z,3.05
2018-02-11T13:08:07.735Z,3.02
2018-02-11T13:10:35.563Z,3.10
2018-02-11T13:13:03.121Z,3.27
2018-02-11T13:15:30.744Z,3.27
2018-02-11T13:17:58.318Z,3.12
2018-02-11T13:20:25.944Z,3.15
2018-02-11T13:22:53.507Z,3.15
2018-02-11T13:25:21.356Z,2.98
2018-02-11T13:27:48.980Z,2.90
2018-02-11T13:30:16.510Z,3.04
2018-02-11T13:32:44.365Z,3.00
2018-02-11T13:35:12.006Z,3.05
2018-02-11T13:37:39.614Z,3.04
2018-02-11T13:40:07.145Z,3.03
2018-02-11T13:42:34.710Z,3.07
2018-02-11T13:45:02.296Z,3.06
2018-02-11T13:47:30.081Z,3.03
2018-02-11T13:49:57.637Z,2.90
2018-02-11T13:52:25.192Z,3.02
2018-02-11T13:54:52.765Z,2.87
2018-02-11T13:57:20.380Z,2.73
2018-02-11T13:59:47.991Z,2.70
2018-02-11T14:02:15.554Z,2.62
2018-02-11T14:04:43.454Z,2.64
2018-02-11T14:07:11.010Z,2.72
2018-02-11T14:09:38.564Z,2.67
2018-02-11T14:12:06.149Z,2.67
2018-02-11T14:14:33.693Z,2.60
2018-02-11T14:17:01.250Z,2.64
2018-02-11T14:19:28.832Z,2.66
2018-02-11T14:21:56.375Z,2.72
2018-02-11T14:24:23.985Z,2.71
2018-02-11T14:26:51.544Z,2.61
2018-02-11T14:29:19.108Z,2.55
2018-02-11T14:31:46.934Z,2.42
2018-02-11T14:34:14.481Z,2.46
2018-02-11T14:36:42.081Z,2.32
2018-02-11T14:39:09.933Z,2.35
2018-02-11T14:41:37.481Z,2.47
2018-02-11T14:44:05.142Z,2.42
2018-02-11T14:46:32.694Z,2.34
2018-02-11T14:49:00.239Z,2.39
2018-02-11T14:51:27.856Z,2.37
2018-02-11T14:53:55.493Z,2.46
2018-02-11T14:56:23.043Z,2.46
2018-02-11T14:58:50.998Z,2.32
2018-02-11T15:01:18.616Z,2.26
2018-02-11T15:03:46.275Z,2.38
2018-02-11T15:06:13.934Z,2.46
2018-02-11T15:08:41.703Z,2.46
2018-02-11T15:11:09.256Z,2.31
2018-02-11T15:13:36.864Z,2.34
2018-02-11T15:16:04.669Z,2.37
2018-02-11T15:18:32.275Z,2.41
2018-02-11T15:21:00.427Z,2.27
2018-02-11T15:23:28.062Z,2.40
2018-02-11T15:25:55.625Z,2.40
2018-02-11T15:28:23.295Z,2.36
2018-02-11T15:30:50.902Z,2.42
2018-02-11T15:33:18.462Z,2.43
2018-02-11T15:35:46.042Z,2.52
2018-02-11T15:38:13.634Z,2.53
2018-02-11T15:40:41.321Z,2.46
2018-02-11T15:43:08.903Z,2.47
2018-02-11T15:45:36.459Z,2.50
2018-02-11T15:48:04.305Z,2.55
2018-02-11T15:50:32.140Z,2.51
2018-02-11T15:52:59.713Z,2.56
2018-02-11T15:55:27.359Z,2.59
2018-02-11T15:57:54.900Z,2.60
2018-02-11T16:00:22.476Z,2.62
2018-02-11T16:02:50.380Z,2.64
2018-02-11T16:05:17.946Z,2.65
2018-02-11T16:07:45.568Z,2.74
2018-02-11T16:10:13.454Z,2.76
2018-02-11T16:12:41.079Z,2.89
2018-02-11T16:15:08.651Z,2.80
2018-02-11T16:17:36.310Z,2.77
2018-02-11T16:20:03.979Z,2.82
2018-02-11T16:22:31.505Z,2.81
2018-02-11T16:24:59.074Z,2.94
2018-02-11T16:27:26.667Z,2.84
2018-02-11T16:29:54.385Z,2.85
2018-02-11T16:32:21.988Z,2.86
2018-02-11T16:34:49.566Z,2.90
2018-02-11T16:37:17.276Z,2.81
2018-02-11T16:39:44.952Z,2.87
2018-02-11T16:42:12.687Z,2.80
2018-02-11T16:44:40.256Z,2.83
2018-02-11T16:47:08.110Z,2.83
2018-02-11T16:49:35.814Z,2.83
2018-02-11T16:52:03.412Z,2.83
2018-02-11T16:54:30.996Z,2.93
2018-02-11T16:56:58.583Z,2.90
2018-02-11T16:59:26.205Z,2.90
2018-02-11T17:01:53.817Z,2.90
2018-02-11T17:04:21.382Z,2.95
2018-02-11T17:06:48.990Z,2.96
2018-02-11T17:09:16.762Z,2.96
2018-02-11T17:11:44.390Z,2.97
2018-02-11T17:14:11.947Z,2.91
2018-02-11T17:16:39.609Z,2.90
2018-02-11T17:19:07.277Z,2.96
2018-02-11T17:21:34.830Z,2.96
2018-02-11T17:24:03.035Z,3.01
2018-02-11T17:26:30.688Z,3.02
2018-02-11T17:28:58.417Z,2.96
2018-02-11T17:31:26.231Z,2.97
2018-02-11T17:33:53.827Z,3.03
2018-02-11T17:36:21.369Z,3.05
2018-02-11T17:38:48.980Z,2.94
2018-02-11T17:41:16.512Z,2.95
2018-02-11T17:43:44.038Z,2.92
2018-02-11T17:46:11.600Z,2.90
2018-02-11T17:48:39.138Z,2.91
2018-02-11T17:51:06.710Z,3.01
2018-02-11T17:53:34.234Z,2.99
2018-02-11T17:56:01.770Z,2.97
2018-02-11T17:58:29.331Z,3.00
2018-02-11T18:00:56.922Z,3.01
2018-02-11T18:03:24.726Z,3.05
2018-02-11T18:05:52.301Z,3.02
2018-02-11T18:08:19.885Z,3.07
2018-02-11T18:10:47.462Z,3.05
2018-02-11T18:13:15.050Z,3.02
2018-02-11T18:15:42.843Z,3.08
2018-02-11T18:18:10.363Z,3.05
2018-02-11T18:20:37.934Z,3.09
2018-02-11T18:23:05.490Z,3.06
2018-02-11T18:25:33.037Z,3.01
2018-02-11T18:28:01.005Z,3.04
2018-02-11T18:30:28.535Z,3.01
2018-02-11T18:32:56.070Z,3.04
2018-02-11T18:35:23.919Z,3.10
2018-02-11T18:37:51.498Z,3.02
2018-02-11T18:40:19.122Z,3.02
2018-02-11T18:42:46.676Z,3.04
2018-02-11T18:45:14.498Z,2.98
2018-02-11T18:47:42.046Z,3.06
2018-02-11T18:50:09.581Z,3.01
2018-02-11T18:52:37.226Z,3.00
2018-02-11T18:55:04.777Z,3.03
2018-02-11T18:57:32.303Z,3.03
2018-02-11T18:59:59.847Z,3.01
2018-02-11T19:02:27.389Z,3.04
2018-02-11T19:04:54.961Z,3.03
2018-02-11T19:07:22.496Z,3.04
2018-02-11T19:09:50.317Z,3.06
2018-02-11T19:12:17.891Z,3.06
2018-02-11T19:14:45.457Z,3.02
2018-02-11T19:17:13.070Z,3.10
2018-02-11T19:19:40.612Z,3.05
2018-02-11T19:22:08.263Z,2.95
2018-02-11T19:24:35.839Z,3.00
2018-02-11T19:27:03.478Z,2.98
2018-02-11T19:29:31.077Z,2.95
2018-02-11T19:31:58.841Z,2.91
2018-02-11T19:34:26.510Z,2.98
2018-02-11T19:36:54.458Z,3.02
2018-02-11T19:39:22.142Z,3.04
2018-02-11T19:41:49.877Z,3.00
2018-02-11T19:44:17.434Z,2.97
2018-02-11T19:46:45.032Z,3.00
2018-02-11T19:49:12.929Z,2.96
2018-02-11T19:51:40.643Z,2.99
2018-02-11T19:54:08.264Z,3.00
2018-02-11T19:56:35.834Z,3.08
2018-02-11T19:59:03.395Z,3.06
2018-02-11T20:01:30.991Z,3.02
2018-02-11T20:03:58.596Z,3.03
2018-02-11T20:06:26.193Z,3.05
2018-02-11T20:08:53.777Z,3.04
2018-02-11T20:11:21.981Z,3.02
2018-02-11T20:13:49.642Z,2.99
2018-02-11T20:16:17.201Z,2.99
2018-02-11T20:18:44.762Z,2.97
2018-02-11T20:21:12.317Z,3.00
2018-02-11T20:23:39.855Z,3.06
2018-02-11T20:26:07.461Z,3.06
2018-02-11T20:28:35.011Z,2.99
2018-02-11T20:31:02.684Z,2.96
2018-02-11T20:33:30.283Z,2.99
2018-02-11T20:35:58.156Z,2.95
2018-02-11T20:38:25.788Z,2.96
2018-02-11T20:40:53.485Z,2.92
2018-02-11T20:43:21.397Z,2.93
2018-02-11T20:45:49.234Z,2.92
2018-02-11T20:48:16.778Z,2.92
2018-02-11T20:50:44.802Z,2.97
2018-02-11T20:53:12.571Z,2.95
2018-02-11T20:55:40.181Z,2.89
2018-02-11T20:58:07.941Z,2.88
2018-02-11T21:00:35.523Z,2.83
2018-02-11T21:03:03.315Z,2.85
2018-02-11T21:05:33.194Z,2.89
2018-02-11T21:08:01.000Z,2.90
2018-02-11T21:10:28.725Z,2.81
2018-02-11T21:12:56.274Z,2.77
2018-02-11T21:15:23.947Z,2.80
2018-02-11T21:17:52.323Z,2.80
2018-02-11T21:20:19.947Z,2.82
2018-02-11T21:22:48.425Z,2.83
2018-02-11T21:25:15.971Z,2.71
2018-02-11T21:27:43.549Z,2.70
2018-02-11T21:30:12.220Z,2.69
2018-02-11T21:32:39.796Z,2.73
2018-02-11T21:35:07.383Z,2.63
2018-02-11T21:37:34.922Z,2.70
2018-02-11T21:40:02.776Z,2.69
2018-02-11T21:42:30.377Z,2.71
2018-02-11T21:44:58.009Z,2.75
2018-02-11T21:47:25.554Z,2.65
2018-02-11T21:49:53.140Z,2.64
2018-02-11T21:52:20.684Z,2.61
2018-02-11T21:54:48.261Z,2.66
2018-02-11T21:57:15.865Z,2.64
2018-02-11T21:59:43.790Z,2.67
2018-02-11T22:02:11.648Z,2.67
2018-02-11T22:04:39.921Z,2.62
2018-02-11T22:07:07.463Z,2.56
2018-02-11T22:09:35.066Z,2.50
2018-02-11T22:12:02.608Z,2.48
2018-02-11T22:14:30.146Z,2.47
2018-02-11T22:16:57.695Z,2.49
2018-02-11T22:19:25.583Z,2.40
2018-02-11T22:21:53.164Z,2.34
2018-02-11T22:24:20.759Z,2.38
2018-02-11T22:26:48.302Z,2.41
2018-02-11T22:29:15.909Z,2.43
2018-02-11T22:31:43.472Z,2.38
2018-02-11T22:34:11.040Z,2.43
2018-02-11T22:36:38.922Z,2.43
2018-02-11T22:39:06.444Z,2.38
2018-02-11T22:41:33.995Z,2.39
2018-02-11T22:44:01.813Z,2.34
2018-02-11T22:46:29.404Z,2.38
2018-02-11T22:48:57.166Z,2.38
2018-02-11T22:51:24.691Z,2.36
2018-02-11T22:53:52.247Z,2.29
2018-02-11T22:56:20.029Z,2.32
2018-02-11T22:58:47.583Z,2.28
2018-02-11T23:01:15.255Z,2.28
2018-02-11T23:03:42.799Z,2.34
2018-02-11T23:06:10.320Z,2.26
2018-02-11T23:08:37.879Z,2.32
2018-02-11T23:11:05.641Z,2.28
2018-02-11T23:13:33.217Z,2.26
2018-02-11T23:16:00.751Z,2.17
2018-02-11T23:18:28.274Z,2.25
2018-02-11T23:20:55.852Z,2.26
2018-02-11T23:23:23.472Z,2.24
2018-02-11T23:25:51.016Z,2.20
2018-02-11T23:28:18.535Z,2.11
2018-02-11T23:30:46.114Z,2.11
2018-02-11T23:33:13.679Z,2.06
2018-02-11T23:35:41.505Z,2.07
2018-02-11T23:38:09.320Z,2.05
2018-02-11T23:40:36.861Z,2.08
2018-02-11T23:43:04.471Z,2.12
2018-02-11T23:45:32.032Z,2.12
2018-02-11T23:47:59.573Z,2.10
2018-02-11T23:50:27.187Z,2.07
2018-02-11T23:52:54.701Z,2.07
2018-02-11T23:55:22.608Z,2.04
2018-02-11T23:57:50.138Z,2.04
